Airport View

Enter AWOS ICAO identifier for current METAR.

ex. KFNL

KM40 221835Z AUTO 20006KT 10SM SCT030 SCT036 SCT060 30/20 A2997 RMK AO2

22 Jul 2019 18:43

Frequency: 118.475

Phone: 662-369-3498

Other Area AWOS: KCBM - KGTR - KTUP - KSTF

TAF KCBM 221700Z 2217/2323 18009KT 9999 SCT030 BKN060 QNH2993INS TEMPO 2300/2304 VRB12G18KT 4800 -TSRA BKN025CB BECMG 2303/2304 33006KT 9999 SCT002 BKN007 QNH2990INS BECMG 2310/2311 34006KT 6000 -SHRA OVC015 QNH2993INS BECMG 2314/2315 01009KT 9999 NSW BKN020 QNH2995INS BECMG 2317/2318 01009KT 9999 SCT050 QNH3000INS TX32/2221Z TN23/2312Z